This is the latest recevied weather packets stored in our database for station/object KI8L. If no packets are shown the sender has not sent any weather packets the latest 10 day(s).
| Time | Temp. | Humidity | Pressure | Rain* | Wind** | Luminosity | Snow |
|---|---|---|---|---|---|---|---|
| 1777679491 | 6.11° C | 85% | 1016.8 hPa | 0 mm | - | 17 W/m² | - |
| 1777679186 | 6.11° C | 84% | 1016.9 hPa | 0 mm | - | 20 W/m² | - |
| 1777678884 | 6.67° C | 83% | 1016.6 hPa | 0 mm | - | 23 W/m² | - |
| 1777678582 | 6.67° C | 82% | 1016.6 hPa | 0 mm | - | 29 W/m² | - |
| 1777678279 | 6.67° C | 83% | 1016.6 hPa | 0 mm | - | 47 W/m² | - |
| 1777677975 | 6.67° C | 83% | 1016.6 hPa | 0 mm | - | 52 W/m² | - |
| 1777677673 | 6.67° C | 82% | 1016.6 hPa | 0 mm | - | 49 W/m² | - |
| 1777677370 | 6.67° C | 81% | 1016.6 hPa | 0 mm | - | 54 W/m² | - |
| 1777677068 | 6.67° C | 82% | 1016.8 hPa | 0 mm | - | 65 W/m² | - |
| 1777676767 | 6.67° C | 82% | 1016.8 hPa | 0 mm | - | 51 W/m² | - |
| 1777676464 | 6.67° C | 83% | 1017 hPa | 0 mm | - | 43 W/m² | - |
| 1777676161 | 6.67° C | 82% | 1016.7 hPa | 0 mm | - | 55 W/m² | - |
| 1777675857 | 6.67° C | 83% | 1016.9 hPa | 0 mm | - | 70 W/m² | - |
| 1777675555 | 7.22° C | 83% | 1016.9 hPa | 0 mm | - | 74 W/m² | - |
| 1777675252 | 6.67° C | 84% | 1016.8 hPa | 0 mm | - | 104 W/m² | - |
| 1777674948 | 6.67° C | 84% | 1016.8 hPa | 0 mm | - | 89 W/m² | - |
| 1777674645 | 6.67° C | 84% | 1016.7 hPa | 0 mm | - | 63 W/m² | - |
| 1777674346 | 7.22° C | 81% | 1016.8 hPa | 0 mm | - | 98 W/m² | - |
| 1777674039 | 6.67° C | 81% | 1016.9 hPa | 0 mm | - | 299 W/m² | - |
| 1777673735 | 6.67° C | 81% | 1016.4 hPa | 0 mm | - | 107 W/m² | - |
| 1777673432 | 7.22° C | 81% | 1016.5 hPa | 0 mm | - | 155 W/m² | - |
| 1777673130 | 7.22° C | 82% | 1016.5 hPa | 0 mm | - | 156 W/m² | - |
| 1777672826 | 6.67° C | 84% | 1016.2 hPa | 0 mm | - | 143 W/m² | - |
| 1777672523 | 6.67° C | 83% | 1016.3 hPa | 0 mm | - | 115 W/m² | - |
| 1777672218 | 6.67° C | 83% | 1016.3 hPa | 0 mm | - | 124 W/m² | - |
* Rain latest hour (hover to see other rain measurements)
** Current wind speed in m/s (hover to see current wind gust speed)